createdAt,value
2019-02-19T00:00:22.443Z,3.09
2019-02-19T00:01:22.468Z,3.13
2019-02-19T00:02:22.494Z,3.13
2019-02-19T00:03:22.522Z,3.21
2019-02-19T00:04:22.546Z,3.18
2019-02-19T00:05:22.573Z,3.12
2019-02-19T00:06:22.597Z,3.16
2019-02-19T00:07:22.625Z,3.09
2019-02-19T00:08:22.649Z,3.01
2019-02-19T00:09:22.677Z,3.05
2019-02-19T00:10:22.699Z,3.06
2019-02-19T00:11:22.727Z,3.01
2019-02-19T00:12:22.750Z,3.08
2019-02-19T00:13:22.777Z,2.98
2019-02-19T00:14:22.804Z,3.03
2019-02-19T00:15:22.831Z,2.91
2019-02-19T00:16:22.853Z,3.01
2019-02-19T00:17:22.880Z,2.97
2019-02-19T00:18:22.908Z,2.98
2019-02-19T00:19:22.932Z,3.00
2019-02-19T00:20:22.960Z,2.94
2019-02-19T00:21:22.984Z,3.05
2019-02-19T00:22:23.009Z,2.94
2019-02-19T00:23:23.035Z,2.94
2019-02-19T00:24:23.067Z,2.94
2019-02-19T00:25:23.086Z,2.97
2019-02-19T00:26:23.119Z,2.83
2019-02-19T00:27:23.138Z,2.87
2019-02-19T00:28:23.164Z,2.91
2019-02-19T00:29:23.191Z,2.82
2019-02-19T00:30:23.215Z,2.83
2019-02-19T00:31:23.245Z,2.83
2019-02-19T00:32:23.265Z,2.62
2019-02-19T00:33:23.293Z,2.68
2019-02-19T00:34:23.317Z,2.72
2019-02-19T00:35:23.343Z,2.77
2019-02-19T00:36:23.370Z,2.77
2019-02-19T00:37:23.397Z,2.61
2019-02-19T00:38:23.420Z,2.58
2019-02-19T00:39:23.446Z,2.61
2019-02-19T00:40:23.477Z,2.58
2019-02-19T00:41:23.501Z,2.50
2019-02-19T00:42:23.528Z,2.54
2019-02-19T00:43:23.553Z,2.54
2019-02-19T00:44:23.578Z,2.58
2019-02-19T00:45:23.605Z,2.58
2019-02-19T00:46:23.629Z,2.46
2019-02-19T00:47:23.653Z,2.51
2019-02-19T00:48:23.678Z,2.54
2019-02-19T00:49:23.707Z,2.59
2019-02-19T00:50:23.732Z,2.64
2019-02-19T00:51:23.758Z,2.64
2019-02-19T00:52:23.784Z,2.57
2019-02-19T00:53:23.809Z,2.55
2019-02-19T00:54:23.833Z,2.59
2019-02-19T00:55:23.859Z,2.61
2019-02-19T00:56:23.885Z,2.73
2019-02-19T00:57:23.910Z,2.62
2019-02-19T00:58:23.937Z,2.73
2019-02-19T00:59:23.963Z,2.69
2019-02-19T01:00:23.987Z,2.72
2019-02-19T01:01:24.014Z,2.80
2019-02-19T01:02:24.042Z,2.69
2019-02-19T01:03:24.065Z,2.73
2019-02-19T01:04:24.092Z,2.68
2019-02-19T01:05:24.119Z,2.72
2019-02-19T01:06:24.145Z,2.69
2019-02-19T01:07:24.168Z,2.73
2019-02-19T01:08:24.191Z,2.62
2019-02-19T01:09:24.222Z,2.72
2019-02-19T01:10:24.249Z,2.69
2019-02-19T01:11:24.276Z,2.55
2019-02-19T01:12:24.296Z,2.61
2019-02-19T01:13:24.323Z,2.59
2019-02-19T01:14:24.349Z,2.55
2019-02-19T01:15:25.677Z,2.68
2019-02-19T01:16:24.400Z,2.62
2019-02-19T01:17:24.442Z,2.62
2019-02-19T01:18:24.450Z,2.62
2019-02-19T01:19:24.485Z,2.61
2019-02-19T01:20:24.501Z,2.62
2019-02-19T01:21:24.530Z,2.75
2019-02-19T01:22:24.555Z,2.75
2019-02-19T01:23:24.586Z,2.61
2019-02-19T01:24:24.608Z,2.59
2019-02-19T01:25:24.635Z,2.64
2019-02-19T01:26:24.657Z,2.68
2019-02-19T01:27:24.682Z,2.65
2019-02-19T01:28:24.709Z,2.72
2019-02-19T01:29:24.733Z,2.73
2019-02-19T01:30:24.761Z,2.73
2019-02-19T01:31:24.788Z,2.65
2019-02-19T01:32:24.811Z,2.73
2019-02-19T01:33:24.839Z,2.64
2019-02-19T01:34:24.861Z,2.58
2019-02-19T01:35:24.892Z,2.64
2019-02-19T01:36:24.914Z,2.62
2019-02-19T01:37:24.940Z,2.72
2019-02-19T01:38:24.969Z,2.57
2019-02-19T01:39:24.992Z,2.64
2019-02-19T01:40:25.019Z,2.77
2019-02-19T01:41:25.051Z,2.70
2019-02-19T01:42:25.071Z,2.72
2019-02-19T01:43:25.094Z,2.73
2019-02-19T01:44:25.119Z,2.77
2019-02-19T01:45:25.148Z,2.76
2019-02-19T01:46:25.171Z,2.75
2019-02-19T01:47:25.197Z,2.76
2019-02-19T01:48:25.224Z,2.75
2019-02-19T01:49:25.251Z,2.69
2019-02-19T01:50:25.274Z,2.72
2019-02-19T01:51:25.300Z,2.59
2019-02-19T01:52:25.324Z,2.65
2019-02-19T01:53:25.351Z,2.68
2019-02-19T01:54:25.379Z,2.57
2019-02-19T01:55:25.406Z,2.58
2019-02-19T01:56:25.429Z,2.64
2019-02-19T01:57:25.457Z,2.64
2019-02-19T01:58:25.480Z,2.61
2019-02-19T01:59:25.536Z,2.46
2019-02-19T02:00:25.535Z,2.51
2019-02-19T02:01:25.556Z,2.62
2019-02-19T02:02:25.585Z,2.46
2019-02-19T02:03:25.610Z,2.61
2019-02-19T02:04:25.634Z,2.58
2019-02-19T02:05:25.660Z,2.55
2019-02-19T02:06:25.688Z,2.57
2019-02-19T02:07:25.717Z,2.73
2019-02-19T02:08:25.737Z,2.75
2019-02-19T02:09:25.766Z,2.62
2019-02-19T02:10:25.789Z,2.62
2019-02-19T02:11:25.818Z,2.73
2019-02-19T02:12:25.840Z,2.75
2019-02-19T02:13:25.867Z,2.69
2019-02-19T02:14:25.919Z,2.82
2019-02-19T02:15:25.921Z,2.82
2019-02-19T02:16:25.943Z,2.79
2019-02-19T02:17:25.969Z,2.85
2019-02-19T02:18:25.996Z,2.90
2019-02-19T02:19:26.022Z,2.94
2019-02-19T02:20:26.050Z,2.91
2019-02-19T02:21:26.079Z,2.94
2019-02-19T02:22:26.101Z,2.98
2019-02-19T02:23:26.126Z,3.00
2019-02-19T02:24:26.153Z,3.05
2019-02-19T02:25:26.183Z,3.01
2019-02-19T02:26:26.204Z,3.01
2019-02-19T02:27:26.230Z,3.05
2019-02-19T02:28:26.263Z,3.00
2019-02-19T02:29:26.286Z,3.13
2019-02-19T02:30:26.309Z,3.12
2019-02-19T02:31:26.333Z,3.18
2019-02-19T02:32:26.361Z,3.13
2019-02-19T02:33:26.387Z,3.21
2019-02-19T02:34:26.414Z,3.18
2019-02-19T02:35:26.440Z,3.18
2019-02-19T02:36:26.469Z,3.16
2019-02-19T02:37:26.492Z,3.29
2019-02-19T02:38:26.519Z,3.26
2019-02-19T02:39:26.543Z,3.27
2019-02-19T02:40:26.569Z,3.33
2019-02-19T02:41:26.606Z,3.29
2019-02-19T02:42:26.622Z,3.22
2019-02-19T02:43:26.650Z,3.34
2019-02-19T02:44:26.674Z,3.34
2019-02-19T02:45:26.703Z,3.43
2019-02-19T02:46:26.729Z,3.37
2019-02-19T02:47:26.757Z,3.36
2019-02-19T02:48:26.781Z,3.52
2019-02-19T02:49:26.808Z,3.40
2019-02-19T02:50:26.837Z,3.36
2019-02-19T02:51:26.864Z,3.56
2019-02-19T02:52:26.892Z,3.59
2019-02-19T02:53:26.914Z,3.55
2019-02-19T02:54:26.944Z,3.58
2019-02-19T02:55:26.968Z,3.56
2019-02-19T02:56:26.999Z,3.56
2019-02-19T02:57:27.026Z,3.58
2019-02-19T02:58:27.066Z,3.49
2019-02-19T02:59:27.075Z,3.66
2019-02-19T03:00:27.102Z,3.58
2019-02-19T03:01:27.126Z,3.56
2019-02-19T03:02:27.155Z,3.58
2019-02-19T03:03:27.180Z,3.61
2019-02-19T03:04:27.218Z,3.56
2019-02-19T03:05:27.240Z,3.73
2019-02-19T03:06:27.263Z,3.63
2019-02-19T03:07:27.287Z,3.59
2019-02-19T03:08:27.313Z,3.59
2019-02-19T03:09:27.339Z,3.61
2019-02-19T03:10:27.366Z,3.61
2019-02-19T03:11:27.398Z,3.58
2019-02-19T03:12:27.420Z,3.76
2019-02-19T03:13:27.451Z,3.64
2019-02-19T03:14:27.474Z,3.61
2019-02-19T03:15:27.501Z,3.61
2019-02-19T03:16:27.527Z,3.78
2019-02-19T03:17:27.555Z,3.76
2019-02-19T03:18:27.581Z,3.74
2019-02-19T03:19:27.609Z,3.66
2019-02-19T03:20:27.636Z,3.71
2019-02-19T03:21:27.662Z,3.77
2019-02-19T03:22:27.690Z,3.64
2019-02-19T03:23:27.723Z,3.76
2019-02-19T03:24:27.746Z,3.73
2019-02-19T03:25:27.772Z,3.73
2019-02-19T03:26:27.800Z,3.73
2019-02-19T03:27:27.825Z,3.81
2019-02-19T03:28:27.852Z,3.71
2019-02-19T03:29:27.879Z,3.73
2019-02-19T03:30:27.910Z,3.78
2019-02-19T03:31:27.938Z,3.74
2019-02-19T03:32:27.968Z,3.84
2019-02-19T03:33:27.993Z,3.74
2019-02-19T03:34:28.016Z,3.81
2019-02-19T03:35:28.043Z,3.84
2019-02-19T03:36:28.069Z,3.84
2019-02-19T03:37:28.097Z,3.78
2019-02-19T03:38:28.126Z,3.81
2019-02-19T03:39:28.154Z,3.82
2019-02-19T03:40:28.177Z,3.89
2019-02-19T03:41:28.206Z,3.84
2019-02-19T03:42:28.231Z,3.86
2019-02-19T03:43:28.256Z,3.82
2019-02-19T03:44:28.287Z,3.85
2019-02-19T03:45:28.315Z,3.85
2019-02-19T03:46:30.356Z,3.77
2019-02-19T03:47:28.375Z,3.84
2019-02-19T03:48:28.393Z,3.82
2019-02-19T03:49:28.419Z,3.84
2019-02-19T03:50:28.447Z,3.85
2019-02-19T03:51:28.477Z,3.78
2019-02-19T03:52:28.500Z,3.81
2019-02-19T03:53:28.527Z,3.85
2019-02-19T03:54:28.555Z,3.84
2019-02-19T03:55:28.583Z,3.78
2019-02-19T03:56:28.608Z,3.78
2019-02-19T03:57:28.637Z,3.85
2019-02-19T03:58:28.664Z,3.89
2019-02-19T03:59:28.692Z,3.85
2019-02-19T04:00:28.716Z,3.85
2019-02-19T04:01:28.746Z,3.82
2019-02-19T04:02:28.769Z,3.82
2019-02-19T04:03:28.803Z,3.88
2019-02-19T04:04:28.828Z,3.91
2019-02-19T04:05:28.854Z,3.85
2019-02-19T04:06:28.879Z,3.82
2019-02-19T04:07:28.906Z,3.78
2019-02-19T04:08:28.932Z,3.85
2019-02-19T04:09:28.960Z,3.85
2019-02-19T04:10:28.993Z,3.86
2019-02-19T04:11:29.015Z,3.85
2019-02-19T04:12:29.043Z,3.73
2019-02-19T04:13:29.075Z,3.81
2019-02-19T04:14:29.096Z,3.78
2019-02-19T04:15:29.143Z,3.94
2019-02-19T04:16:29.149Z,3.84
2019-02-19T04:17:29.178Z,3.78
2019-02-19T04:18:29.204Z,3.88
2019-02-19T04:19:29.232Z,3.88
2019-02-19T04:20:29.257Z,3.77
2019-02-19T04:21:29.287Z,3.92
2019-02-19T04:22:29.315Z,3.81
2019-02-19T04:23:29.343Z,3.78
2019-02-19T04:24:29.368Z,3.86
2019-02-19T04:25:29.402Z,3.76
2019-02-19T04:26:29.419Z,3.86
2019-02-19T04:27:29.450Z,3.84
2019-02-19T04:28:29.474Z,3.82
2019-02-19T04:29:29.501Z,3.78
2019-02-19T04:30:29.528Z,3.78
2019-02-19T04:31:29.562Z,3.91
2019-02-19T04:32:29.590Z,3.82
2019-02-19T04:33:29.619Z,3.77
2019-02-19T04:34:29.638Z,3.78
2019-02-19T04:35:29.672Z,3.92
2019-02-19T04:36:29.689Z,3.82
2019-02-19T04:37:30.119Z,3.92
2019-02-19T04:38:29.748Z,3.85
2019-02-19T04:39:29.773Z,3.88
2019-02-19T04:40:29.804Z,3.88
2019-02-19T04:41:29.825Z,3.74
2019-02-19T04:42:29.852Z,3.85
2019-02-19T04:43:29.884Z,3.84
2019-02-19T04:44:29.907Z,3.74
2019-02-19T04:45:29.933Z,3.81
2019-02-19T04:46:31.759Z,3.82
2019-02-19T04:47:29.990Z,3.78
2019-02-19T04:48:30.015Z,3.77
2019-02-19T04:49:30.046Z,3.74
2019-02-19T04:50:30.071Z,3.86
2019-02-19T04:51:30.104Z,3.74
2019-02-19T04:52:30.127Z,3.89
2019-02-19T04:53:30.152Z,3.94
2019-02-19T04:54:30.192Z,3.81
2019-02-19T04:55:30.208Z,3.89
2019-02-19T04:56:30.250Z,3.92
2019-02-19T04:57:30.264Z,3.76
2019-02-19T04:58:30.324Z,3.92
2019-02-19T04:59:30.317Z,3.88
2019-02-19T05:00:30.342Z,3.88
2019-02-19T05:01:30.371Z,3.77
2019-02-19T05:02:30.398Z,3.85
2019-02-19T05:03:30.424Z,3.91
2019-02-19T05:04:30.451Z,3.77
2019-02-19T05:05:30.477Z,3.86
2019-02-19T05:06:30.510Z,3.81
2019-02-19T05:07:30.556Z,3.78
2019-02-19T05:08:30.572Z,3.88
2019-02-19T05:09:30.591Z,3.89
2019-02-19T05:10:30.617Z,3.78
2019-02-19T05:11:30.643Z,3.85
2019-02-19T05:12:30.670Z,3.76
2019-02-19T05:13:30.698Z,3.86
2019-02-19T05:14:30.727Z,3.78
2019-02-19T05:15:30.752Z,3.85
2019-02-19T05:16:40.271Z,3.77
2019-02-19T05:17:30.813Z,3.81
2019-02-19T05:18:30.833Z,3.84
2019-02-19T05:19:30.862Z,3.85
2019-02-19T05:20:30.890Z,3.84
2019-02-19T05:21:30.918Z,3.81
2019-02-19T05:22:30.944Z,3.67
2019-02-19T05:23:30.971Z,3.89
2019-02-19T05:24:30.996Z,3.89
2019-02-19T05:25:31.027Z,3.84
2019-02-19T05:26:31.059Z,3.86
2019-02-19T05:27:31.084Z,3.84
2019-02-19T05:28:31.107Z,3.84
2019-02-19T05:29:31.134Z,3.85
2019-02-19T05:30:31.163Z,3.77
2019-02-19T05:31:31.188Z,3.76
2019-02-19T05:32:31.216Z,3.78
2019-02-19T05:33:31.243Z,3.78
2019-02-19T05:34:31.270Z,3.78
2019-02-19T05:35:31.301Z,3.89
2019-02-19T05:36:31.337Z,3.78
2019-02-19T05:37:31.355Z,3.86
2019-02-19T05:38:31.379Z,3.82
2019-02-19T05:39:31.411Z,3.76
2019-02-19T05:40:31.437Z,3.76
2019-02-19T05:41:31.465Z,3.88
2019-02-19T05:42:31.492Z,3.76
2019-02-19T05:43:31.515Z,3.86
2019-02-19T05:44:31.541Z,3.77
2019-02-19T05:45:31.572Z,3.82
2019-02-19T05:46:31.598Z,3.85
2019-02-19T05:47:31.630Z,3.81
2019-02-19T05:48:31.654Z,3.77
2019-02-19T05:49:31.681Z,3.82
2019-02-19T05:50:31.710Z,3.81
2019-02-19T05:51:31.738Z,3.81
2019-02-19T05:52:31.761Z,3.82
2019-02-19T05:53:31.788Z,3.84
2019-02-19T05:54:31.816Z,3.82
2019-02-19T05:55:31.843Z,3.77
2019-02-19T05:56:31.872Z,3.78
2019-02-19T05:57:31.901Z,3.78
2019-02-19T05:58:31.924Z,3.78
2019-02-19T05:59:32.573Z,3.74
2019-02-19T06:00:31.991Z,3.85
2019-02-19T06:01:32.006Z,3.81
2019-02-19T06:02:32.036Z,3.81
2019-02-19T06:03:32.062Z,3.89
2019-02-19T06:04:32.090Z,3.92
2019-02-19T06:05:32.119Z,3.91
2019-02-19T06:06:32.145Z,3.91
2019-02-19T06:07:32.176Z,3.94
2019-02-19T06:08:32.198Z,3.96
2019-02-19T06:09:32.230Z,3.94
2019-02-19T06:10:32.258Z,4.00
2019-02-19T06:11:32.283Z,4.02
2019-02-19T06:12:32.308Z,3.99
2019-02-19T06:13:32.336Z,3.99
2019-02-19T06:14:32.365Z,4.02
2019-02-19T06:15:32.392Z,3.94
2019-02-19T06:16:32.420Z,4.02
2019-02-19T06:17:32.447Z,4.06
2019-02-19T06:18:32.482Z,4.02
2019-02-19T06:19:32.501Z,4.00
2019-02-19T06:20:32.526Z,3.96
2019-02-19T06:21:32.556Z,4.09
2019-02-19T06:22:32.582Z,4.02
2019-02-19T06:23:32.609Z,4.09
2019-02-19T06:24:32.636Z,4.03
2019-02-19T06:25:32.665Z,4.14
2019-02-19T06:26:32.698Z,4.09
2019-02-19T06:27:32.721Z,4.12
2019-02-19T06:28:32.789Z,4.13
2019-02-19T06:29:32.774Z,4.14
2019-02-19T06:30:32.803Z,4.14
2019-02-19T06:31:32.839Z,4.14
2019-02-19T06:32:32.859Z,4.06
2019-02-19T06:33:32.885Z,4.09
2019-02-19T06:34:32.917Z,4.16
2019-02-19T06:35:32.939Z,4.12
2019-02-19T06:36:32.969Z,4.22
2019-02-19T06:37:32.995Z,4.14
2019-02-19T06:38:33.024Z,4.27
2019-02-19T06:39:33.052Z,4.25
2019-02-19T06:40:33.077Z,4.24
2019-02-19T06:41:33.105Z,4.21
2019-02-19T06:42:33.135Z,4.28
2019-02-19T06:43:33.161Z,4.24
2019-02-19T06:44:33.187Z,4.30
2019-02-19T06:45:33.215Z,4.28
2019-02-19T06:46:33.243Z,4.32
2019-02-19T06:47:33.270Z,4.32
2019-02-19T06:48:33.298Z,4.22
2019-02-19T06:49:33.325Z,4.32
2019-02-19T06:50:33.355Z,4.34
2019-02-19T06:51:33.380Z,4.36
2019-02-19T06:52:33.413Z,4.30
2019-02-19T06:53:33.444Z,4.28
2019-02-19T06:54:33.464Z,4.28
2019-02-19T06:55:33.495Z,4.21
2019-02-19T06:56:33.520Z,4.28
2019-02-19T06:57:33.547Z,4.38
2019-02-19T06:58:33.577Z,4.32
2019-02-19T06:59:33.609Z,4.34
2019-02-19T07:00:33.633Z,4.27
2019-02-19T07:01:33.658Z,4.30
2019-02-19T07:02:33.689Z,4.38
2019-02-19T07:03:33.713Z,4.39
2019-02-19T07:04:33.740Z,4.32
2019-02-19T07:05:33.771Z,4.32
2019-02-19T07:06:33.799Z,4.34
2019-02-19T07:07:33.827Z,4.36
2019-02-19T07:08:33.854Z,4.42
2019-02-19T07:09:33.884Z,4.39
2019-02-19T07:10:33.917Z,4.49
2019-02-19T07:11:33.937Z,4.50
2019-02-19T07:12:33.962Z,4.57
2019-02-19T07:13:33.991Z,4.56
2019-02-19T07:14:34.021Z,4.56
2019-02-19T07:15:34.049Z,4.64
2019-02-19T07:16:34.076Z,4.58
2019-02-19T07:17:34.104Z,4.67
2019-02-19T07:18:34.134Z,4.66
2019-02-19T07:19:34.164Z,4.64
2019-02-19T07:20:34.193Z,4.66
2019-02-19T07:21:34.214Z,4.60
2019-02-19T07:22:34.244Z,4.64
2019-02-19T07:23:34.273Z,4.63
2019-02-19T07:24:34.299Z,4.70
2019-02-19T07:25:34.328Z,4.67
2019-02-19T07:26:34.361Z,4.63
2019-02-19T07:27:34.383Z,4.70
2019-02-19T07:28:34.413Z,4.71
2019-02-19T07:29:34.453Z,4.78
2019-02-19T07:30:34.476Z,4.76
2019-02-19T07:31:34.499Z,4.82
2019-02-19T07:32:34.527Z,4.68
2019-02-19T07:33:34.551Z,4.76
2019-02-19T07:34:34.583Z,4.78
2019-02-19T07:35:34.612Z,4.78
2019-02-19T07:36:34.636Z,4.84
2019-02-19T07:37:34.668Z,4.94
2019-02-19T07:38:34.694Z,4.89
2019-02-19T07:39:34.724Z,5.00
2019-02-19T07:40:34.750Z,5.01
2019-02-19T07:41:34.789Z,5.12
2019-02-19T07:42:34.809Z,5.10
2019-02-19T07:43:34.836Z,5.07
2019-02-19T07:44:34.864Z,4.97
2019-02-19T07:45:34.892Z,5.04
2019-02-19T07:46:34.921Z,5.02
2019-02-19T07:47:34.950Z,5.05
2019-02-19T07:48:34.977Z,5.02
2019-02-19T07:49:35.005Z,4.97
2019-02-19T07:50:35.034Z,4.95
2019-02-19T07:51:35.065Z,4.97
2019-02-19T07:52:35.097Z,4.95
2019-02-19T07:53:35.121Z,4.92
2019-02-19T07:54:35.148Z,4.98
2019-02-19T07:55:35.181Z,4.95
2019-02-19T07:56:35.207Z,4.94
2019-02-19T07:57:35.241Z,4.97
2019-02-19T07:58:35.264Z,5.00
2019-02-19T07:59:35.291Z,4.98
2019-02-19T08:00:35.324Z,5.05
2019-02-19T08:01:35.350Z,5.01
2019-02-19T08:02:35.379Z,5.12
2019-02-19T08:03:35.411Z,5.13
2019-02-19T08:04:35.470Z,5.19
2019-02-19T08:05:35.463Z,5.12
2019-02-19T08:06:35.492Z,5.16
2019-02-19T08:07:35.521Z,5.13
2019-02-19T08:08:35.592Z,5.19
2019-02-19T08:09:35.578Z,5.22
2019-02-19T08:10:35.606Z,5.22
2019-02-19T08:11:35.637Z,5.16
2019-02-19T08:12:35.662Z,5.16
2019-02-19T08:13:35.696Z,5.33
2019-02-19T08:14:35.724Z,5.25
2019-02-19T08:15:35.750Z,5.22
2019-02-19T08:16:35.778Z,5.25
2019-02-19T08:17:35.807Z,5.22
2019-02-19T08:18:35.836Z,5.25
2019-02-19T08:19:35.865Z,5.28
2019-02-19T08:20:35.895Z,5.23
2019-02-19T08:21:35.924Z,5.34
2019-02-19T08:22:35.950Z,5.36
2019-02-19T08:23:35.980Z,5.46
2019-02-19T08:24:36.010Z,5.51
2019-02-19T08:25:36.039Z,5.38
2019-02-19T08:26:36.069Z,5.46
2019-02-19T08:27:36.100Z,5.43
2019-02-19T08:28:36.125Z,5.51
2019-02-19T08:29:36.157Z,5.59
2019-02-19T08:30:36.180Z,5.65
2019-02-19T08:31:36.211Z,5.88
2019-02-19T08:32:36.240Z,5.87
2019-02-19T08:33:36.269Z,5.84
2019-02-19T08:34:36.298Z,5.97
2019-02-19T08:35:36.351Z,5.97
2019-02-19T08:36:36.363Z,6.16
2019-02-19T08:37:36.386Z,6.19
2019-02-19T08:38:36.416Z,6.32
2019-02-19T08:39:36.445Z,6.17
2019-02-19T08:40:36.473Z,6.31
2019-02-19T08:41:36.506Z,6.56
2019-02-19T08:42:36.541Z,6.53
2019-02-19T08:43:36.562Z,6.35
2019-02-19T08:44:36.594Z,6.34
2019-02-19T08:45:36.624Z,6.56
2019-02-19T08:46:36.652Z,6.47
2019-02-19T08:47:42.637Z,6.41
2019-02-19T08:48:36.712Z,6.52
2019-02-19T08:49:36.742Z,6.34
2019-02-19T08:50:36.775Z,6.44
2019-02-19T08:51:36.805Z,6.57
2019-02-19T08:52:36.832Z,6.54
2019-02-19T08:53:36.867Z,6.72
2019-02-19T08:54:36.893Z,6.53
2019-02-19T08:55:36.926Z,6.38
2019-02-19T08:56:36.952Z,6.39
2019-02-19T08:57:36.983Z,6.39
2019-02-19T08:58:37.013Z,6.36
2019-02-19T08:59:37.044Z,6.39
2019-02-19T09:00:38.537Z,6.53
2019-02-19T09:01:37.105Z,6.52
2019-02-19T09:02:37.135Z,6.59
2019-02-19T09:03:37.168Z,6.65
2019-02-19T09:04:37.199Z,6.96
2019-02-19T09:05:37.227Z,7.51
2019-02-19T09:06:37.258Z,7.50
2019-02-19T09:07:37.287Z,7.56
2019-02-19T09:08:37.318Z,7.53
2019-02-19T09:09:37.346Z,7.36
2019-02-19T09:10:37.378Z,7.44
2019-02-19T09:11:37.408Z,7.41
2019-02-19T09:12:37.438Z,7.53
2019-02-19T09:13:37.472Z,7.29
2019-02-19T09:14:37.503Z,7.18
2019-02-19T09:15:37.532Z,7.18
2019-02-19T09:16:37.564Z,6.97
2019-02-19T09:17:37.593Z,7.22
2019-02-19T09:18:37.624Z,7.36
2019-02-19T09:19:37.657Z,7.55
2019-02-19T09:20:37.687Z,7.50
2019-02-19T09:21:37.717Z,7.44
2019-02-19T09:22:37.755Z,7.53
2019-02-19T09:23:37.805Z,7.53
2019-02-19T09:24:37.814Z,7.51
2019-02-19T09:25:37.848Z,7.64
2019-02-19T09:26:37.876Z,7.70
2019-02-19T09:27:37.907Z,7.58
2019-02-19T09:28:37.938Z,7.50
2019-02-19T09:29:37.978Z,7.37
2019-02-19T09:30:38.001Z,7.67
2019-02-19T09:31:38.033Z,7.81
2019-02-19T09:32:38.063Z,8.06
2019-02-19T09:33:38.096Z,8.14
2019-02-19T09:34:38.128Z,8.44
2019-02-19T09:35:38.159Z,8.57
2019-02-19T09:36:38.196Z,8.50
2019-02-19T09:37:38.225Z,8.35
2019-02-19T09:38:38.256Z,8.59
2019-02-19T09:39:38.288Z,8.63
2019-02-19T09:40:38.321Z,8.57
2019-02-19T09:41:38.352Z,8.89
2019-02-19T09:42:38.384Z,8.84
2019-02-19T09:43:38.417Z,8.71
2019-02-19T09:44:38.449Z,8.81
2019-02-19T09:45:38.481Z,8.57
2019-02-19T09:46:38.518Z,8.34
2019-02-19T09:47:38.548Z,8.57
2019-02-19T09:48:38.583Z,8.39
2019-02-19T09:49:38.613Z,8.49
2019-02-19T09:50:38.649Z,8.52
2019-02-19T09:51:38.678Z,8.57
2019-02-19T09:52:38.710Z,8.78
2019-02-19T09:53:38.746Z,9.05
2019-02-19T09:54:38.778Z,9.34
2019-02-19T09:55:38.810Z,8.95
2019-02-19T09:56:38.847Z,8.97
2019-02-19T09:57:38.881Z,9.29
2019-02-19T09:58:38.908Z,9.40
2019-02-19T09:59:38.944Z,9.59
2019-02-19T10:00:38.973Z,9.62
2019-02-19T10:01:39.009Z,9.47
2019-02-19T10:02:39.041Z,9.18
2019-02-19T10:03:39.077Z,9.02
2019-02-19T10:04:39.112Z,9.27
2019-02-19T10:05:39.141Z,9.19
2019-02-19T10:06:39.174Z,9.63
2019-02-19T10:07:39.214Z,9.54
2019-02-19T10:08:39.243Z,9.69
2019-02-19T10:09:39.278Z,9.63
2019-02-19T10:10:39.310Z,9.82
2019-02-19T10:11:39.343Z,9.99
2019-02-19T10:12:39.380Z,9.62
2019-02-19T10:13:39.412Z,9.97
2019-02-19T10:14:39.450Z,9.51
2019-02-19T10:15:39.481Z,9.45
2019-02-19T10:16:41.615Z,9.18
2019-02-19T10:17:39.556Z,9.29
2019-02-19T10:18:39.584Z,9.44
2019-02-19T10:19:39.618Z,9.42
2019-02-19T10:20:39.652Z,9.85
2019-02-19T10:21:39.688Z,9.94
2019-02-19T10:22:39.725Z,9.99
2019-02-19T10:23:39.761Z,9.85
2019-02-19T10:24:39.791Z,9.56
2019-02-19T10:25:39.826Z,8.96
2019-02-19T10:26:40.762Z,8.86
2019-02-19T10:27:39.896Z,8.95
2019-02-19T10:28:39.927Z,9.05
2019-02-19T10:29:39.965Z,9.42
2019-02-19T10:30:39.999Z,9.26
2019-02-19T10:31:40.031Z,9.73
2019-02-19T10:32:40.063Z,10.13
2019-02-19T10:33:40.103Z,10.20
2019-02-19T10:34:40.136Z,9.85
2019-02-19T10:35:40.172Z,9.94
2019-02-19T10:36:40.201Z,10.02
2019-02-19T10:37:40.238Z,10.15
2019-02-19T10:38:40.270Z,10.27
2019-02-19T10:39:40.310Z,10.24
2019-02-19T10:40:40.339Z,9.77
2019-02-19T10:41:40.373Z,9.72
2019-02-19T10:42:40.410Z,9.81
2019-02-19T10:43:40.443Z,9.81
2019-02-19T10:44:40.476Z,9.73
2019-02-19T10:45:40.510Z,10.00
2019-02-19T10:46:40.546Z,10.27
2019-02-19T10:47:40.581Z,10.18
2019-02-19T10:48:40.618Z,10.06
2019-02-19T10:49:40.651Z,9.90
2019-02-19T10:50:40.686Z,10.00
2019-02-19T10:51:40.723Z,9.72
2019-02-19T10:52:40.756Z,10.06
2019-02-19T10:53:40.791Z,10.28
2019-02-19T10:54:40.824Z,10.27
2019-02-19T10:55:40.879Z,10.53
2019-02-19T10:56:40.892Z,10.57
2019-02-19T10:57:40.927Z,11.01
2019-02-19T10:58:40.961Z,10.87
2019-02-19T10:59:40.996Z,11.02
2019-02-19T11:00:41.034Z,10.97
2019-02-19T11:01:41.066Z,10.83
2019-02-19T11:02:41.105Z,10.98
2019-02-19T11:03:41.136Z,10.87
2019-02-19T11:04:41.171Z,11.04
2019-02-19T11:05:41.214Z,10.97
2019-02-19T11:06:41.244Z,11.15
2019-02-19T11:07:41.279Z,10.95
2019-02-19T11:08:41.312Z,11.56
2019-02-19T11:09:41.347Z,11.83
2019-02-19T11:10:41.385Z,11.33
2019-02-19T11:11:41.421Z,11.12
2019-02-19T11:12:41.456Z,10.83
2019-02-19T11:13:41.489Z,10.83
2019-02-19T11:14:41.529Z,11.22
2019-02-19T11:15:41.563Z,11.55
2019-02-19T11:16:41.595Z,11.30
2019-02-19T11:17:41.645Z,11.23
2019-02-19T11:18:41.666Z,11.18
2019-02-19T11:19:41.706Z,10.76
2019-02-19T11:20:41.741Z,10.87
2019-02-19T11:21:41.774Z,10.98
2019-02-19T11:22:41.909Z,10.86
2019-02-19T11:23:41.849Z,10.75
2019-02-19T11:24:41.878Z,10.46
2019-02-19T11:25:41.921Z,10.64
2019-02-19T11:26:41.953Z,10.87
2019-02-19T11:27:41.986Z,11.04
2019-02-19T11:28:42.038Z,11.25
2019-02-19T11:29:42.059Z,11.45
2019-02-19T11:30:42.101Z,11.51
2019-02-19T11:31:42.130Z,11.60
2019-02-19T11:32:42.167Z,11.76
2019-02-19T11:33:42.202Z,11.27
2019-02-19T11:34:42.236Z,11.40
2019-02-19T11:35:42.278Z,11.23
2019-02-19T11:36:42.308Z,11.16
2019-02-19T11:37:42.358Z,11.02
2019-02-19T11:38:42.383Z,11.49
2019-02-19T11:39:42.415Z,11.63
2019-02-19T11:40:42.451Z,11.48
2019-02-19T11:41:42.491Z,11.55
2019-02-19T11:42:42.523Z,11.48
2019-02-19T11:43:42.562Z,11.31
2019-02-19T11:44:42.597Z,11.33
2019-02-19T11:45:42.630Z,11.35
2019-02-19T11:46:42.668Z,11.63
2019-02-19T11:47:42.752Z,11.65
2019-02-19T11:48:42.741Z,11.60
2019-02-19T11:49:42.775Z,11.81
2019-02-19T11:50:42.810Z,11.38
2019-02-19T11:51:42.846Z,11.08
2019-02-19T11:52:42.883Z,11.20
2019-02-19T11:53:42.924Z,11.44
2019-02-19T11:54:42.955Z,11.22
2019-02-19T11:55:43.002Z,10.80
2019-02-19T11:56:43.027Z,10.62
2019-02-19T11:57:43.061Z,10.10
2019-02-19T11:58:43.101Z,10.06
2019-02-19T11:59:43.139Z,10.20
2019-02-19T12:00:43.168Z,9.95
2019-02-19T12:01:43.205Z,9.67
2019-02-19T12:02:43.239Z,9.70
2019-02-19T12:03:43.277Z,9.85
2019-02-19T12:04:43.308Z,9.84
2019-02-19T12:05:43.347Z,9.97
2019-02-19T12:06:43.379Z,9.97
2019-02-19T12:07:43.414Z,9.95
2019-02-19T12:08:43.449Z,9.87
2019-02-19T12:09:43.483Z,9.84
2019-02-19T12:10:43.516Z,9.95
2019-02-19T12:11:43.555Z,10.00
2019-02-19T12:12:43.584Z,10.25
2019-02-19T12:13:43.618Z,10.49
2019-02-19T12:14:43.652Z,10.62
2019-02-19T12:15:43.686Z,10.90
2019-02-19T12:16:43.718Z,10.86
2019-02-19T12:17:43.760Z,10.71
2019-02-19T12:18:46.228Z,10.57
2019-02-19T12:19:43.819Z,10.38
2019-02-19T12:20:43.852Z,10.10
2019-02-19T12:21:43.891Z,9.85
2019-02-19T12:22:43.922Z,9.84
2019-02-19T12:23:43.964Z,9.49
2019-02-19T12:24:43.991Z,9.47
2019-02-19T12:25:44.021Z,9.47
2019-02-19T12:26:44.055Z,9.45
2019-02-19T12:27:44.087Z,9.40
2019-02-19T12:28:44.120Z,9.47
2019-02-19T12:29:44.158Z,9.39
2019-02-19T12:30:44.189Z,9.31
2019-02-19T12:31:44.219Z,9.44
2019-02-19T12:32:44.256Z,9.42
2019-02-19T12:33:44.285Z,9.56
2019-02-19T12:34:44.319Z,9.70
2019-02-19T12:35:44.358Z,9.67
2019-02-19T12:36:44.382Z,9.67
2019-02-19T12:37:44.415Z,9.74
2019-02-19T12:38:44.451Z,9.69
2019-02-19T12:39:44.487Z,9.62
2019-02-19T12:40:44.515Z,9.66
2019-02-19T12:41:44.544Z,9.70
2019-02-19T12:42:44.577Z,9.64
2019-02-19T12:43:44.613Z,9.59
2019-02-19T12:44:44.642Z,9.44
2019-02-19T12:45:44.674Z,9.49
2019-02-19T12:46:44.710Z,9.39
2019-02-19T12:47:44.741Z,9.34
2019-02-19T12:48:44.771Z,9.30
2019-02-19T12:49:44.804Z,9.21
2019-02-19T12:50:44.838Z,9.12
2019-02-19T12:51:44.868Z,9.09
2019-02-19T12:52:44.900Z,9.19
2019-02-19T12:53:44.933Z,9.02
2019-02-19T12:54:44.964Z,9.11
2019-02-19T12:55:44.996Z,9.09
2019-02-19T12:56:45.028Z,9.18
2019-02-19T12:57:45.064Z,9.08
2019-02-19T12:58:45.092Z,9.24
2019-02-19T12:59:45.126Z,9.09
2019-02-19T13:00:45.154Z,9.03
2019-02-19T13:01:45.187Z,9.12
2019-02-19T13:02:45.222Z,9.11
2019-02-19T13:03:45.250Z,9.08
2019-02-19T13:04:45.283Z,9.11
2019-02-19T13:05:45.313Z,9.21
2019-02-19T13:06:45.343Z,9.16
2019-02-19T13:07:46.998Z,9.18
2019-02-19T13:08:45.407Z,9.16
2019-02-19T13:09:45.442Z,9.22
2019-02-19T13:10:45.476Z,9.21
2019-02-19T13:11:45.508Z,9.12
2019-02-19T13:12:45.541Z,9.18
2019-02-19T13:13:45.576Z,9.26
2019-02-19T13:14:45.596Z,9.11
2019-02-19T13:15:45.628Z,9.19